sensor_id;sensor_type;location;lat;lon;timestamp;pressure;altitude;pressure_sealevel;temperature;humidity
70407;BME280;57821;52.202;0.154;2023-02-16T00:02:09;102196.59;;;8.87;82.68
70407;BME280;57821;52.202;0.154;2023-02-16T00:04:36;102200.78;;;8.82;82.73
70407;BME280;57821;52.202;0.154;2023-02-16T00:07:02;102198.94;;;8.78;82.95
70407;BME280;57821;52.202;0.154;2023-02-16T00:09:29;102195.38;;;8.75;83.15
70407;BME280;57821;52.202;0.154;2023-02-16T00:11:56;102194.44;;;8.71;83.26
70407;BME280;57821;52.202;0.154;2023-02-16T00:14:23;102190.84;;;8.66;83.70
70407;BME280;57821;52.202;0.154;2023-02-16T00:16:52;102182.84;;;8.57;83.66
70407;BME280;57821;52.202;0.154;2023-02-16T00:19:28;102183.59;;;8.53;83.64
70407;BME280;57821;52.202;0.154;2023-02-16T00:21:58;102185.41;;;8.55;84.07
70407;BME280;57821;52.202;0.154;2023-02-16T00:24:27;102188.75;;;8.53;84.20
70407;BME280;57821;52.202;0.154;2023-02-16T00:26:54;102180.09;;;8.51;84.01
70407;BME280;57821;52.202;0.154;2023-02-16T00:29:31;102180.97;;;8.51;84.01
70407;BME280;57821;52.202;0.154;2023-02-16T00:32:00;102181.78;;;8.49;83.71
70407;BME280;57821;52.202;0.154;2023-02-16T00:34:33;102180.00;;;8.48;83.94
70407;BME280;57821;52.202;0.154;2023-02-16T00:37:06;102171.25;;;8.43;84.34
70407;BME280;57821;52.202;0.154;2023-02-16T00:39:33;102181.66;;;8.46;84.11
70407;BME280;57821;52.202;0.154;2023-02-16T00:42:03;102163.34;;;8.37;84.31
70407;BME280;57821;52.202;0.154;2023-02-16T00:44:37;102179.06;;;8.44;84.47
70407;BME280;57821;52.202;0.154;2023-02-16T00:49:41;102182.38;;;8.40;84.22
70407;BME280;57821;52.202;0.154;2023-02-16T00:54:47;102169.38;;;8.37;84.15
70407;BME280;57821;52.202;0.154;2023-02-16T00:57:16;102161.47;;;8.31;84.13
70407;BME280;57821;52.202;0.154;2023-02-16T00:59:45;102167.59;;;8.35;84.41
70407;BME280;57821;52.202;0.154;2023-02-16T01:02:12;102176.16;;;8.34;84.54
70407;BME280;57821;52.202;0.154;2023-02-16T01:04:39;102176.16;;;8.34;84.39
70407;BME280;57821;52.202;0.154;2023-02-16T01:07:13;102169.28;;;8.33;84.73
70407;BME280;57821;52.202;0.154;2023-02-16T01:09:41;102165.75;;;8.31;84.67
70407;BME280;57821;52.202;0.154;2023-02-16T01:12:15;102160.38;;;8.24;84.83
70407;BME280;57821;52.202;0.154;2023-02-16T01:14:44;102162.28;;;8.30;84.47
70407;BME280;57821;52.202;0.154;2023-02-16T01:17:12;102161.38;;;8.30;84.53
70407;BME280;57821;52.202;0.154;2023-02-16T01:19:38;102167.38;;;8.29;84.43
70407;BME280;57821;52.202;0.154;2023-02-16T01:22:05;102167.31;;;8.27;84.49
70407;BME280;57821;52.202;0.154;2023-02-16T01:24:31;102162.13;;;8.25;84.27
70407;BME280;57821;52.202;0.154;2023-02-16T01:26:58;102158.63;;;8.23;84.62
70407;BME280;57821;52.202;0.154;2023-02-16T01:29:25;102155.09;;;8.21;84.88
70407;BME280;57821;52.202;0.154;2023-02-16T01:31:51;102162.84;;;8.21;85.10
70407;BME280;57821;52.202;0.154;2023-02-16T01:34:18;102162.84;;;8.20;84.51
70407;BME280;57821;52.202;0.154;2023-02-16T01:36:47;102167.13;;;8.19;85.00
70407;BME280;57821;52.202;0.154;2023-02-16T01:39:18;102156.69;;;8.16;84.73
70407;BME280;57821;52.202;0.154;2023-02-16T01:44:49;102154.94;;;8.15;84.05
70407;BME280;57821;52.202;0.154;2023-02-16T01:49:48;102160.91;;;8.13;84.61
70407;BME280;57821;52.202;0.154;2023-02-16T01:52:25;102158.28;;;8.11;84.56
70407;BME280;57821;52.202;0.154;2023-02-16T01:55:09;102156.50;;;8.09;84.90
70407;BME280;57821;52.202;0.154;2023-02-16T01:57:48;102153.91;;;8.09;84.39
70407;BME280;57821;52.202;0.154;2023-02-16T02:02:51;102147.00;;;8.08;85.17
70407;BME280;57821;52.202;0.154;2023-02-16T02:05:28;102144.47;;;8.09;85.50
70407;BME280;57821;52.202;0.154;2023-02-16T02:08:15;102148.75;;;8.10;84.36
70407;BME280;57821;52.202;0.154;2023-02-16T02:11:20;102146.19;;;8.10;84.99
70407;BME280;57821;52.202;0.154;2023-02-16T02:14:14;102143.66;;;8.12;84.67
70407;BME280;57821;52.202;0.154;2023-02-16T02:17:02;102143.66;;;8.12;84.96
70407;BME280;57821;52.202;0.154;2023-02-16T02:22:51;102136.84;;;8.14;84.77
70407;BME280;57821;52.202;0.154;2023-02-16T02:37:55;102144.66;;;8.17;84.81
70407;BME280;57821;52.202;0.154;2023-02-16T02:43:13;102148.22;;;8.20;84.26
70407;BME280;57821;52.202;0.154;2023-02-16T02:45:56;102143.94;;;8.21;83.54
70407;BME280;57821;52.202;0.154;2023-02-16T02:48:30;102150.00;;;8.23;83.93
70407;BME280;57821;52.202;0.154;2023-02-16T02:51:00;102144.88;;;8.24;83.85
70407;BME280;57821;52.202;0.154;2023-02-16T02:53:29;102150.03;;;8.24;84.46
70407;BME280;57821;52.202;0.154;2023-02-16T02:55:58;102150.88;;;8.23;83.71
70407;BME280;57821;52.202;0.154;2023-02-16T02:58:31;102150.00;;;8.23;83.87
70407;BME280;57821;52.202;0.154;2023-02-16T03:00:59;102151.75;;;8.24;83.78
70407;BME280;57821;52.202;0.154;2023-02-16T03:03:35;102145.69;;;8.23;84.42
70407;BME280;57821;52.202;0.154;2023-02-16T03:06:10;102141.38;;;8.22;84.08
70407;BME280;57821;52.202;0.154;2023-02-16T03:08:41;102126.69;;;8.21;83.72
70407;BME280;57821;52.202;0.154;2023-02-16T03:11:18;102100.69;;;8.15;84.50
70407;BME280;57821;52.202;0.154;2023-02-16T03:13:53;102105.19;;;8.22;84.18
70407;BME280;57821;52.202;0.154;2023-02-16T03:16:30;102090.41;;;8.17;84.10
70407;BME280;57821;52.202;0.154;2023-02-16T03:19:00;102087.09;;;8.21;84.45
70407;BME280;57821;52.202;0.154;2023-02-16T03:21:28;102081.94;;;8.22;83.96
70407;BME280;57821;52.202;0.154;2023-02-16T03:23:55;102078.47;;;8.22;83.97
70407;BME280;57821;52.202;0.154;2023-02-16T03:26:23;102062.97;;;8.20;84.35
70407;BME280;57821;52.202;0.154;2023-02-16T03:28:50;102060.47;;;8.25;84.28
70407;BME280;57821;52.202;0.154;2023-02-16T03:31:21;102059.59;;;8.24;83.98
70407;BME280;57821;52.202;0.154;2023-02-16T03:33:50;102057.91;;;8.25;84.33
70407;BME280;57821;52.202;0.154;2023-02-16T03:36:17;102046.69;;;8.24;84.17
70407;BME280;57821;52.202;0.154;2023-02-16T03:38:43;102041.47;;;8.23;84.60
70407;BME280;57821;52.202;0.154;2023-02-16T03:41:10;102039.75;;;8.23;84.11
70407;BME280;57821;52.202;0.154;2023-02-16T03:43:36;102031.09;;;8.21;84.36
70407;BME280;57821;52.202;0.154;2023-02-16T03:46:03;102029.38;;;8.20;84.32
70407;BME280;57821;52.202;0.154;2023-02-16T03:48:30;102022.50;;;8.21;84.92
70407;BME280;57821;52.202;0.154;2023-02-16T03:50:56;102028.50;;;8.20;84.36
70407;BME280;57821;52.202;0.154;2023-02-16T03:53:23;102018.09;;;8.18;84.47
70407;BME280;57821;52.202;0.154;2023-02-16T03:55:49;102025.84;;;8.18;84.32
70407;BME280;57821;52.202;0.154;2023-02-16T03:58:18;102005.84;;;8.11;84.42
70407;BME280;57821;52.202;0.154;2023-02-16T04:00:45;102007.72;;;8.17;84.38
70407;BME280;57821;52.202;0.154;2023-02-16T04:03:12;102006.84;;;8.16;84.56
70407;BME280;57821;52.202;0.154;2023-02-16T04:05:39;102012.00;;;8.16;84.30
70407;BME280;57821;52.202;0.154;2023-02-16T04:08:07;102015.44;;;8.15;84.16
70407;BME280;57821;52.202;0.154;2023-02-16T04:10:35;102005.09;;;8.15;83.87
70407;BME280;57821;52.202;0.154;2023-02-16T04:13:03;102004.25;;;8.16;83.63
70407;BME280;57821;52.202;0.154;2023-02-16T04:15:30;102012.00;;;8.16;83.99
70407;BME280;57821;52.202;0.154;2023-02-16T04:17:57;102009.44;;;8.16;83.19
70407;BME280;57821;52.202;0.154;2023-02-16T04:20:28;101990.34;;;8.11;83.09
70407;BME280;57821;52.202;0.154;2023-02-16T04:22:54;102000.03;;;8.18;83.08
70407;BME280;57821;52.202;0.154;2023-02-16T04:25:22;101998.25;;;8.17;82.81
70407;BME280;57821;52.202;0.154;2023-02-16T04:27:49;102001.72;;;8.18;82.52
70407;BME280;57821;52.202;0.154;2023-02-16T04:30:19;101992.16;;;8.14;82.44
70407;BME280;57821;52.202;0.154;2023-02-16T04:32:46;101994.84;;;8.18;82.49
70407;BME280;57821;52.202;0.154;2023-02-16T04:35:13;101997.38;;;8.17;81.37
70407;BME280;57821;52.202;0.154;2023-02-16T04:37:40;101996.50;;;8.16;81.35
70407;BME280;57821;52.202;0.154;2023-02-16T04:40:09;101999.13;;;8.18;81.14
70407;BME280;57821;52.202;0.154;2023-02-16T04:42:36;101985.34;;;8.17;81.00
70407;BME280;57821;52.202;0.154;2023-02-16T04:45:02;101987.94;;;8.17;81.37
70407;BME280;57821;52.202;0.154;2023-02-16T04:47:29;101991.34;;;8.16;81.14
70407;BME280;57821;52.202;0.154;2023-02-16T04:49:55;101981.00;;;8.16;80.41
70407;BME280;57821;52.202;0.154;2023-02-16T04:52:22;101979.25;;;8.15;80.73
70407;BME280;57821;52.202;0.154;2023-02-16T04:54:49;101981.09;;;8.19;80.92
70407;BME280;57821;52.202;0.154;2023-02-16T04:57:16;101978.53;;;8.19;80.65
70407;BME280;57821;52.202;0.154;2023-02-16T04:59:42;101973.34;;;8.19;80.58
70407;BME280;57821;52.202;0.154;2023-02-16T05:02:09;101972.53;;;8.20;80.75
70407;BME280;57821;52.202;0.154;2023-02-16T05:04:36;101982.91;;;8.23;80.10
70407;BME280;57821;52.202;0.154;2023-02-16T05:07:02;101966.53;;;8.23;80.25
70407;BME280;57821;52.202;0.154;2023-02-16T05:09:29;101967.41;;;8.23;79.66
70407;BME280;57821;52.202;0.154;2023-02-16T05:11:55;101958.84;;;8.24;80.16
70407;BME280;57821;52.202;0.154;2023-02-16T05:14:28;101970.94;;;8.27;79.62
70407;BME280;57821;52.202;0.154;2023-02-16T05:16:55;101958.91;;;8.27;79.44
70407;BME280;57821;52.202;0.154;2023-02-16T05:19:21;101960.66;;;8.29;79.59
70407;BME280;57821;52.202;0.154;2023-02-16T05:21:48;101963.31;;;8.30;79.04
70407;BME280;57821;52.202;0.154;2023-02-16T05:24:14;101956.47;;;8.32;78.61
70407;BME280;57821;52.202;0.154;2023-02-16T05:26:41;101953.91;;;8.32;79.40
70407;BME280;57821;52.202;0.154;2023-02-16T05:29:07;101960.84;;;8.35;79.02
70407;BME280;57821;52.202;0.154;2023-02-16T05:31:34;101953.13;;;8.36;78.91
70407;BME280;57821;52.202;0.154;2023-02-16T05:34:00;101962.63;;;8.37;78.61
70407;BME280;57821;52.202;0.154;2023-02-16T05:36:27;101953.19;;;8.38;79.14
70407;BME280;57821;52.202;0.154;2023-02-16T05:38:55;101954.88;;;8.37;79.29
70407;BME280;57821;52.202;0.154;2023-02-16T05:41:21;101967.81;;;8.39;79.25
70407;BME280;57821;52.202;0.154;2023-02-16T05:43:53;101966.97;;;8.38;79.52
70407;BME280;57821;52.202;0.154;2023-02-16T05:46:21;101954.78;;;8.33;79.34
70407;BME280;57821;52.202;0.154;2023-02-16T05:48:49;101957.41;;;8.36;79.21
70407;BME280;57821;52.202;0.154;2023-02-16T05:51:15;101955.75;;;8.38;79.64
70407;BME280;57821;52.202;0.154;2023-02-16T05:53:42;101947.13;;;8.39;79.91
70407;BME280;57821;52.202;0.154;2023-02-16T05:56:09;101948.03;;;8.39;79.51
70407;BME280;57821;52.202;0.154;2023-02-16T05:58:36;101942.91;;;8.41;79.67
70407;BME280;57821;52.202;0.154;2023-02-16T06:01:03;101929.97;;;8.41;79.78
70407;BME280;57821;52.202;0.154;2023-02-16T06:03:30;101936.91;;;8.42;80.02
70407;BME280;57821;52.202;0.154;2023-02-16T06:05:59;101925.72;;;8.43;80.02
70407;BME280;57821;52.202;0.154;2023-02-16T06:08:27;101933.53;;;8.44;79.89
70407;BME280;57821;52.202;0.154;2023-02-16T06:10:53;101936.13;;;8.46;80.00
70407;BME280;57821;52.202;0.154;2023-02-16T06:13:21;101926.69;;;8.48;79.80
70407;BME280;57821;52.202;0.154;2023-02-16T06:15:54;101928.38;;;8.46;80.16
70407;BME280;57821;52.202;0.154;2023-02-16T06:18:22;101931.06;;;8.50;80.58
70407;BME280;57821;52.202;0.154;2023-02-16T06:20:48;101938.84;;;8.52;80.11
70407;BME280;57821;52.202;0.154;2023-02-16T06:23:15;101934.56;;;8.52;79.94
70407;BME280;57821;52.202;0.154;2023-02-16T06:25:43;101931.13;;;8.53;80.16
70407;BME280;57821;52.202;0.154;2023-02-16T06:28:10;101929.44;;;8.54;80.70
70407;BME280;57821;52.202;0.154;2023-02-16T06:30:37;101932.06;;;8.57;80.62
70407;BME280;57821;52.202;0.154;2023-02-16T06:33:03;101923.47;;;8.58;80.94
70407;BME280;57821;52.202;0.154;2023-02-16T06:35:30;101916.66;;;8.60;80.68
70407;BME280;57821;52.202;0.154;2023-02-16T06:37:56;101906.34;;;8.63;80.66
70407;BME280;57821;52.202;0.154;2023-02-16T06:40:23;101908.09;;;8.64;80.11
70407;BME280;57821;52.202;0.154;2023-02-16T06:42:50;101912.50;;;8.67;80.54
70407;BME280;57821;52.202;0.154;2023-02-16T06:45:16;101901.31;;;8.69;80.55
70407;BME280;57821;52.202;0.154;2023-02-16T06:47:43;101908.25;;;8.70;80.85
70407;BME280;57821;52.202;0.154;2023-02-16T06:50:10;101912.63;;;8.73;80.51
70407;BME280;57821;52.202;0.154;2023-02-16T06:52:36;101906.56;;;8.72;80.54
70407;BME280;57821;52.202;0.154;2023-02-16T06:55:03;101910.91;;;8.73;80.64
70407;BME280;57821;52.202;0.154;2023-02-16T06:57:29;101916.97;;;8.75;80.43
70407;BME280;57821;52.202;0.154;2023-02-16T06:59:56;101916.09;;;8.75;80.31
70407;BME280;57821;52.202;0.154;2023-02-16T07:02:22;101919.56;;;8.75;79.91
70407;BME280;57821;52.202;0.154;2023-02-16T07:04:49;101929.06;;;8.76;79.79
70407;BME280;57821;52.202;0.154;2023-02-16T07:07:15;101927.41;;;8.78;80.04
70407;BME280;57821;52.202;0.154;2023-02-16T07:09:42;101923.97;;;8.79;80.06
70407;BME280;57821;52.202;0.154;2023-02-16T07:12:08;101921.41;;;8.81;79.59
70407;BME280;57821;52.202;0.154;2023-02-16T07:14:35;101912.81;;;8.82;79.40
70407;BME280;57821;52.202;0.154;2023-02-16T07:17:01;101921.44;;;8.82;79.39
70407;BME280;57821;52.202;0.154;2023-02-16T07:19:28;101918.91;;;8.85;79.29
70407;BME280;57821;52.202;0.154;2023-02-16T07:21:54;101920.72;;;8.88;79.29
70407;BME280;57821;52.202;0.154;2023-02-16T07:24:21;101908.66;;;8.88;79.69
70407;BME280;57821;52.202;0.154;2023-02-16T07:26:47;101911.28;;;8.90;79.02
70407;BME280;57821;52.202;0.154;2023-02-16T07:29:14;101919.91;;;8.92;79.85
70407;BME280;57821;52.202;0.154;2023-02-16T07:31:40;101906.09;;;8.90;79.56
70407;BME280;57821;52.202;0.154;2023-02-16T07:34:07;101916.53;;;8.94;79.88
70407;BME280;57821;52.202;0.154;2023-02-16T07:36:33;101905.38;;;8.95;79.83
70407;BME280;57821;52.202;0.154;2023-02-16T07:39:00;101914.88;;;8.98;80.03
70407;BME280;57821;52.202;0.154;2023-02-16T07:41:27;101914.03;;;8.99;80.13
70407;BME280;57821;52.202;0.154;2023-02-16T07:43:53;101908.03;;;9.00;80.21
70407;BME280;57821;52.202;0.154;2023-02-16T07:46:20;101901.94;;;8.96;80.26
70407;BME280;57821;52.202;0.154;2023-02-16T07:48:47;101904.66;;;9.02;80.21
70407;BME280;57821;52.202;0.154;2023-02-16T07:51:25;101903.75;;;9.00;80.41
70407;BME280;57821;52.202;0.154;2023-02-16T07:53:53;101913.34;;;9.06;80.47
70407;BME280;57821;52.202;0.154;2023-02-16T07:56:25;101906.50;;;9.08;81.00
70407;BME280;57821;52.202;0.154;2023-02-16T07:58:56;101905.63;;;9.07;81.28
70407;BME280;57821;52.202;0.154;2023-02-16T08:01:23;101903.03;;;9.07;81.73
70407;BME280;57821;52.202;0.154;2023-02-16T08:03:50;101906.44;;;9.06;81.72
70407;BME280;57821;52.202;0.154;2023-02-16T08:06:18;101899.53;;;9.05;81.78
70407;BME280;57821;52.202;0.154;2023-02-16T08:08:44;101903.00;;;9.06;82.40
70407;BME280;57821;52.202;0.154;2023-02-16T08:11:14;101897.81;;;9.06;82.43
70407;BME280;57821;52.202;0.154;2023-02-16T08:13:41;101906.50;;;9.08;82.73
70407;BME280;57821;52.202;0.154;2023-02-16T08:16:09;101903.91;;;9.10;82.50
70407;BME280;57821;52.202;0.154;2023-02-16T08:18:37;101897.94;;;9.12;82.13
70407;BME280;57821;52.202;0.154;2023-02-16T08:21:14;101904.88;;;9.15;83.09
70407;BME280;57821;52.202;0.154;2023-02-16T08:24:07;101902.38;;;9.18;83.05
70407;BME280;57821;52.202;0.154;2023-02-16T08:26:36;101890.22;;;9.15;82.25
70407;BME280;57821;52.202;0.154;2023-02-16T08:29:04;101902.50;;;9.24;82.73
70407;BME280;57821;52.202;0.154;2023-02-16T08:31:33;101901.69;;;9.28;82.47
70407;BME280;57821;52.202;0.154;2023-02-16T08:34:00;101886.25;;;9.32;82.16
70407;BME280;57821;52.202;0.154;2023-02-16T08:36:29;101881.94;;;9.31;82.19
70407;BME280;57821;52.202;0.154;2023-02-16T08:38:56;101884.69;;;9.40;82.47
70407;BME280;57821;52.202;0.154;2023-02-16T08:41:24;101899.44;;;9.44;82.22
70407;BME280;57821;52.202;0.154;2023-02-16T08:43:53;101897.78;;;9.48;82.44
70407;BME280;57821;52.202;0.154;2023-02-16T08:46:20;101893.53;;;9.52;82.56
70407;BME280;57821;52.202;0.154;2023-02-16T08:48:47;101883.25;;;9.55;82.34
70407;BME280;57821;52.202;0.154;2023-02-16T08:51:16;101879.81;;;9.57;82.70
70407;BME280;57821;52.202;0.154;2023-02-16T08:53:44;101880.78;;;9.61;82.34
70407;BME280;57821;52.202;0.154;2023-02-16T08:56:11;101874.75;;;9.63;82.51
70407;BME280;57821;52.202;0.154;2023-02-16T08:58:38;101886.06;;;9.68;82.56
70407;BME280;57821;52.202;0.154;2023-02-16T09:01:06;101883.56;;;9.73;82.61
70407;BME280;57821;52.202;0.154;2023-02-16T09:03:34;101883.66;;;9.77;83.14
70407;BME280;57821;52.202;0.154;2023-02-16T09:06:02;101879.44;;;9.82;83.07
70407;BME280;57821;52.202;0.154;2023-02-16T09:08:30;101886.41;;;9.86;82.76
70407;BME280;57821;52.202;0.154;2023-02-16T09:11:08;101878.63;;;9.86;82.62
70407;BME280;57821;52.202;0.154;2023-02-16T09:13:37;101891.63;;;9.89;82.60
70407;BME280;57821;52.202;0.154;2023-02-16T09:16:05;101894.22;;;9.91;82.98
70407;BME280;57821;52.202;0.154;2023-02-16T09:18:33;101889.94;;;9.92;82.23
70407;BME280;57821;52.202;0.154;2023-02-16T09:21:07;101882.09;;;9.87;82.72
70407;BME280;57821;52.202;0.154;2023-02-16T09:23:34;101893.44;;;9.94;82.88
70407;BME280;57821;52.202;0.154;2023-02-16T09:26:01;101887.41;;;9.96;83.15
70407;BME280;57821;52.202;0.154;2023-02-16T09:28:28;101890.94;;;10.00;82.98
70407;BME280;57821;52.202;0.154;2023-02-16T09:30:55;101893.63;;;10.06;82.69
70407;BME280;57821;52.202;0.154;2023-02-16T09:33:21;101881.56;;;10.08;82.96
70407;BME280;57821;52.202;0.154;2023-02-16T09:35:48;101880.75;;;10.10;82.89
70407;BME280;57821;52.202;0.154;2023-02-16T09:38:14;101887.72;;;10.14;82.61
70407;BME280;57821;52.202;0.154;2023-02-16T09:40:42;101879.97;;;10.16;83.33
70407;BME280;57821;52.202;0.154;2023-02-16T09:45:42;101867.09;;;10.19;83.05
70407;BME280;57821;52.202;0.154;2023-02-16T09:48:45;101871.50;;;10.26;83.32
70407;BME280;57821;52.202;0.154;2023-02-16T09:51:19;101864.69;;;10.31;83.36
70407;BME280;57821;52.202;0.154;2023-02-16T09:54:06;101860.47;;;10.36;82.97
70407;BME280;57821;52.202;0.154;2023-02-16T09:56:39;101862.25;;;10.40;83.21
70407;BME280;57821;52.202;0.154;2023-02-16T09:59:13;101859.72;;;10.46;83.19
70407;BME280;57821;52.202;0.154;2023-02-16T10:09:25;101867.78;;;10.64;83.33
70407;BME280;57821;52.202;0.154;2023-02-16T10:14:39;101867.84;;;10.72;83.06
70407;BME280;57821;52.202;0.154;2023-02-16T10:17:15;101868.81;;;10.79;82.78
70407;BME280;57821;52.202;0.154;2023-02-16T10:22:25;101865.44;;;10.86;82.59
70407;BME280;57821;52.202;0.154;2023-02-16T10:25:20;101878.47;;;10.90;83.48
70407;BME280;57821;52.202;0.154;2023-02-16T10:27:53;101882.91;;;10.99;82.96
70407;BME280;57821;52.202;0.154;2023-02-16T10:30:24;101885.63;;;11.06;83.30
70407;BME280;57821;52.202;0.154;2023-02-16T10:32:56;101870.88;;;11.04;82.78
70407;BME280;57821;52.202;0.154;2023-02-16T10:35:28;101884.81;;;11.12;82.49
70407;BME280;57821;52.202;0.154;2023-02-16T10:38:04;101873.56;;;11.13;82.81
70407;BME280;57821;52.202;0.154;2023-02-16T10:41:12;101879.75;;;11.24;83.02
70407;BME280;57821;52.202;0.154;2023-02-16T10:46:31;101880.72;;;11.32;83.08
70407;BME280;57821;52.202;0.154;2023-02-16T10:48:59;101873.78;;;11.33;82.75
70407;BME280;57821;52.202;0.154;2023-02-16T10:51:31;101876.41;;;11.33;82.32
70407;BME280;57821;52.202;0.154;2023-02-16T10:54:01;101879.81;;;11.30;82.54
70407;BME280;57821;52.202;0.154;2023-02-16T10:59:06;101879.06;;;11.39;83.16
70407;BME280;57821;52.202;0.154;2023-02-16T11:01:54;101879.94;;;11.39;82.53
70407;BME280;57821;52.202;0.154;2023-02-16T11:04:40;101857.41;;;11.35;82.45
70407;BME280;57821;52.202;0.154;2023-02-16T11:07:08;101870.44;;;11.43;83.11
70407;BME280;57821;52.202;0.154;2023-02-16T11:09:36;101867.00;;;11.44;82.83
70407;BME280;57821;52.202;0.154;2023-02-16T11:12:23;101873.97;;;11.46;83.38
70407;BME280;57821;52.202;0.154;2023-02-16T11:14:54;101862.72;;;11.50;83.09
70407;BME280;57821;52.202;0.154;2023-02-16T11:17:22;101863.63;;;11.54;83.26
70407;BME280;57821;52.202;0.154;2023-02-16T11:20:22;101860.22;;;11.58;83.48
70407;BME280;57821;52.202;0.154;2023-02-16T11:22:49;101862.81;;;11.61;83.15
70407;BME280;57821;52.202;0.154;2023-02-16T11:25:25;101857.66;;;11.63;82.85
70407;BME280;57821;52.202;0.154;2023-02-16T11:27:57;101857.66;;;11.63;83.24
70407;BME280;57821;52.202;0.154;2023-02-16T11:30:32;101857.66;;;11.66;83.20
70407;BME280;57821;52.202;0.154;2023-02-16T11:33:20;101864.59;;;11.64;83.49
70407;BME280;57821;52.202;0.154;2023-02-16T11:35:47;101859.47;;;11.70;82.85
70407;BME280;57821;52.202;0.154;2023-02-16T11:38:31;101864.66;;;11.73;82.83
70407;BME280;57821;52.202;0.154;2023-02-16T11:41:01;101856.97;;;11.76;82.85
70407;BME280;57821;52.202;0.154;2023-02-16T11:43:32;101851.81;;;11.82;83.08
70407;BME280;57821;52.202;0.154;2023-02-16T11:48:33;101857.97;;;11.93;83.26
70407;BME280;57821;52.202;0.154;2023-02-16T11:51:03;101840.63;;;11.95;83.46
70407;BME280;57821;52.202;0.154;2023-02-16T11:53:32;101839.84;;;12.02;82.58
70407;BME280;57821;52.202;0.154;2023-02-16T11:56:21;101829.47;;;12.07;82.93
70407;BME280;57821;52.202;0.154;2023-02-16T12:12:44;101823.56;;;12.30;82.43
70407;BME280;57821;52.202;0.154;2023-02-16T12:15:24;101808.00;;;12.33;82.80
70407;BME280;57821;52.202;0.154;2023-02-16T12:23:32;101807.22;;;12.56;82.81
70407;BME280;57821;52.202;0.154;2023-02-16T12:26:42;101802.06;;;12.62;81.92
70407;BME280;57821;52.202;0.154;2023-02-16T12:40:50;101799.59;;;12.92;81.70
70407;BME280;57821;52.202;0.154;2023-02-16T12:43:37;101808.28;;;12.97;81.67
70407;BME280;57821;52.202;0.154;2023-02-16T12:46:20;101814.34;;;13.01;81.50
70407;BME280;57821;52.202;0.154;2023-02-16T12:48:53;101793.53;;;13.05;81.26
70407;BME280;57821;52.202;0.154;2023-02-16T12:51:37;101805.69;;;13.08;81.53
70407;BME280;57821;52.202;0.154;2023-02-16T12:54:15;101809.22;;;13.18;80.91
70407;BME280;57821;52.202;0.154;2023-02-16T12:56:59;101797.94;;;13.20;81.20
70407;BME280;57821;52.202;0.154;2023-02-16T13:02:35;101798.81;;;13.30;80.57
70407;BME280;57821;52.202;0.154;2023-02-16T13:05:09;101804.94;;;13.38;80.08
70407;BME280;57821;52.202;0.154;2023-02-16T13:07:42;101800.56;;;13.37;80.53
70407;BME280;57821;52.202;0.154;2023-02-16T13:12:46;101808.41;;;13.43;80.37
70407;BME280;57821;52.202;0.154;2023-02-16T13:15:19;101804.06;;;13.52;80.43
70407;BME280;57821;52.202;0.154;2023-02-16T13:17:52;101815.34;;;13.59;80.07
70407;BME280;57821;52.202;0.154;2023-02-16T13:20:22;101806.66;;;13.63;79.70
70407;BME280;57821;52.202;0.154;2023-02-16T13:26:10;101786.72;;;13.68;79.38
70407;BME280;57821;52.202;0.154;2023-02-16T13:42:57;101795.38;;;13.75;79.36
70407;BME280;57821;52.202;0.154;2023-02-16T13:45:30;101800.59;;;13.75;78.95
70407;BME280;57821;52.202;0.154;2023-02-16T13:47:58;101801.44;;;13.81;78.87
70407;BME280;57821;52.202;0.154;2023-02-16T13:50:31;101799.72;;;13.82;78.54
70407;BME280;57821;52.202;0.154;2023-02-16T13:53:17;101780.63;;;13.78;78.74
70407;BME280;57821;52.202;0.154;2023-02-16T13:55:46;101784.97;;;13.85;78.96
70407;BME280;57821;52.202;0.154;2023-02-16T14:00:44;101769.31;;;13.79;78.32
70407;BME280;57821;52.202;0.154;2023-02-16T14:05:45;101774.53;;;13.78;78.29
70407;BME280;57821;52.202;0.154;2023-02-16T14:08:24;101771.06;;;13.77;78.33
70407;BME280;57821;52.202;0.154;2023-02-16T14:16:00;101781.47;;;13.89;77.77
70407;BME280;57821;52.202;0.154;2023-02-16T14:18:40;101777.13;;;13.88;78.10
70407;BME280;57821;52.202;0.154;2023-02-16T14:21:36;101764.09;;;13.85;77.93
70407;BME280;57821;52.202;0.154;2023-02-16T14:24:09;101754.53;;;13.84;78.13
70407;BME280;57821;52.202;0.154;2023-02-16T14:27:10;101771.03;;;13.80;78.11
70407;BME280;57821;52.202;0.154;2023-02-16T14:29:52;101774.53;;;13.78;77.82
70407;BME280;57821;52.202;0.154;2023-02-16T14:32:25;101764.97;;;13.71;78.14
70407;BME280;57821;52.202;0.154;2023-02-16T14:35:20;101773.66;;;13.71;78.48
70407;BME280;57821;52.202;0.154;2023-02-16T14:37:58;101777.13;;;13.69;79.09
70407;BME280;57821;52.202;0.154;2023-02-16T14:43:03;101763.25;;;13.65;78.92
70407;BME280;57821;52.202;0.154;2023-02-16T14:48:45;101761.50;;;13.70;79.36
70407;BME280;57821;52.202;0.154;2023-02-16T14:51:31;101771.06;;;13.73;79.23
70407;BME280;57821;52.202;0.154;2023-02-16T14:56:53;101764.97;;;13.69;79.56
70407;BME280;57821;52.202;0.154;2023-02-16T14:59:54;101763.25;;;13.68;79.97
70407;BME280;57821;52.202;0.154;2023-02-16T15:03:02;101764.09;;;13.69;79.57
70407;BME280;57821;52.202;0.154;2023-02-16T15:05:22;101770.19;;;13.66;79.67
70407;BME280;57821;52.202;0.154;2023-02-16T15:08:00;101764.97;;;13.60;79.52
70407;BME280;57821;52.202;0.154;2023-02-16T15:10:28;101777.16;;;13.63;79.94
70407;BME280;57821;52.202;0.154;2023-02-16T15:12:56;101778.91;;;13.62;79.81
70407;BME280;57821;52.202;0.154;2023-02-16T15:15:39;101793.66;;;13.60;79.61
70407;BME280;57821;52.202;0.154;2023-02-16T15:18:12;101791.91;;;13.59;79.69
70407;BME280;57821;52.202;0.154;2023-02-16T15:20:43;101782.34;;;13.58;80.07
70407;BME280;57821;52.202;0.154;2023-02-16T15:23:22;101780.63;;;13.54;79.89
70407;BME280;57821;52.202;0.154;2023-02-16T15:26:02;101777.16;;;13.55;79.60
70407;BME280;57821;52.202;0.154;2023-02-16T15:28:35;101767.59;;;13.55;79.66